Terminal Aerodrome Forecast
Issued by NWS

Home | Current Version | Previous Version | Text Only | Print | Product List | Glossary On
Versions: 1 2 3 4 5 6 7 8 9 10 11 12
000
FTUS44 KOUN 231743
TAFGAG
TAF
KGAG 231743Z 2318/2418 18019G29KT P6SM SCT035 BKN090
     FM240100 14015KT P6SM BKN250
     FM241200 17015KT P6SM OVC050
      TEMPO 2412/2415 5SM -RA=

USA.gov is the U.S. government's official web portal to all federal, state and local government web resources and services.